Time;durP1;ratioP1;P1;durP2;ratioP2;P2;SDS_P1;SDS_P2;PMS_P1;PMS_P2;Temp;Humidity;BMP_temperature;BMP_pressure;BME280_temperature;BME280_humidity;BME280_pressure;Samples;Min_cycle;Max_cycle;Signal;HPM_P1;HPM_P2
2022/05/09 00:00:14;;;;;;;;;;;22.30;99.90;;;;;;5004884;28;19930;-55
2022/05/09 00:02:41;;;;;;;;;;;22.30;99.90;;;;;;5003508;28;20290;-59
2022/05/09 00:05:09;;;;;;;;;;;22.30;99.90;;;;;;5005278;28;19934;-53
2022/05/09 00:07:36;;;;;;;;;;;22.30;99.90;;;;;;5004689;28;19936;-54
2022/05/09 00:10:03;;;;;;;;;;;22.30;99.90;;;;;;5006540;28;19941;-59
2022/05/09 00:12:32;;;;;;;;;;;22.30;99.90;;;;;;5006706;28;19936;-60
2022/05/09 00:14:59;;;;;;;;;;;22.20;99.90;;;;;;5009810;28;19934;-59
2022/05/09 00:17:26;;;;;;;;;;;22.20;99.90;;;;;;5006156;28;20432;-57
2022/05/09 00:19:53;;;;;;;;;;;22.20;99.90;;;;;;5007173;28;19934;-55
2022/05/09 00:22:23;;;;;;;;;;;22.20;99.90;;;;;;5003928;28;19945;-59
2022/05/09 00:24:50;;;;;;;;;;;22.20;99.90;;;;;;5006470;28;19930;-58
2022/05/09 00:27:17;;;;;;;;;;;22.20;99.90;;;;;;5007850;28;19949;-60
2022/05/09 00:29:44;;;;;;;;;;;22.20;99.90;;;;;;5012599;28;19940;-59
2022/05/09 00:32:11;;;;;;;;;;;22.20;99.90;;;;;;5003238;28;19934;-58
2022/05/09 00:34:41;;;;;;;;;;;22.20;99.90;;;;;;5012214;28;19948;-59
2022/05/09 00:37:08;;;;;;;;;;;22.20;99.90;;;;;;5008125;28;19932;-60
2022/05/09 00:39:35;;;;;;;;;;;22.20;99.90;;;;;;5005004;28;20032;-60
2022/05/09 00:42:07;;;;;;;;;;;22.20;99.90;;;;;;5002332;28;20408;-59
2022/05/09 00:44:35;;;;;;;;;;;22.20;99.90;;;;;;5010893;28;20317;-59
2022/05/09 00:47:02;;;;;;;;;;;22.20;99.90;;;;;;5006522;28;19937;-59
2022/05/09 00:49:32;;;;;;;;;;;22.20;99.90;;;;;;4997319;28;19953;-59
2022/05/09 00:52:18;;;;;;;;;;;22.20;99.90;;;;;;5004398;28;19987;-58
2022/05/09 00:55:00;;;;;;;;;;;22.20;99.90;;;;;;5006081;28;19940;-59
2022/05/09 00:57:32;;;;;;;;;;;22.20;99.90;;;;;;5007165;28;19929;-57
2022/05/09 01:00:04;;;;;;;;;;;22.20;99.90;;;;;;5007196;28;19929;-56
2022/05/09 01:02:32;;;;;;;;;;;22.20;99.90;;;;;;5001543;28;20433;-56
2022/05/09 01:05:00;;;;;;;;;;;22.20;99.90;;;;;;5020284;28;19936;-58
2022/05/09 01:07:30;;;;;;;;;;;22.20;99.90;;;;;;5021988;28;19929;-59
2022/05/09 01:09:58;;;;;;;;;;;22.10;99.90;;;;;;5014898;28;19930;-58
2022/05/09 01:12:29;;;;;;;;;;;22.20;99.90;;;;;;5008178;28;19941;-59
2022/05/09 01:15:01;;;;;;;;;;;22.20;99.90;;;;;;5004015;28;19929;-60
2022/05/09 01:17:28;;;;;;;;;;;22.10;99.90;;;;;;5005375;28;19945;-59
2022/05/09 01:19:58;;;;;;;;;;;22.10;99.90;;;;;;5007495;28;20439;-58
2022/05/09 01:22:34;;;;;;;;;;;22.10;99.90;;;;;;5003672;28;19944;-60
2022/05/09 01:25:04;;;;;;;;;;;22.10;99.90;;;;;;5016042;28;19929;-59
2022/05/09 01:27:31;;;;;;;;;;;22.10;99.90;;;;;;5003230;28;19934;-58
2022/05/09 01:30:08;;;;;;;;;;;22.10;99.90;;;;;;5006349;28;19929;-55
2022/05/09 01:32:40;;;;;;;;;;;22.10;99.90;;;;;;5007796;28;19937;-57
2022/05/09 01:35:16;;;;;;;;;;;22.10;99.90;;;;;;5021269;28;19932;-61
2022/05/09 01:37:45;;;;;;;;;;;22.10;99.90;;;;;;5015612;28;19949;-58
2022/05/09 01:40:12;;;;;;;;;;;22.10;99.90;;;;;;5012529;28;19937;-58
2022/05/09 01:42:40;;;;;;;;;;;22.10;99.90;;;;;;5010886;28;20416;-59
2022/05/09 01:45:08;;;;;;;;;;;22.10;99.90;;;;;;5005351;28;19930;-56
2022/05/09 01:50:23;;;;;;;;;;;22.10;99.90;;;;;;5009266;28;19929;-58
2022/05/09 01:52:50;;;;;;;;;;;22.10;99.90;;;;;;4999941;28;20381;-55
2022/05/09 01:55:18;;;;;;;;;;;22.10;99.90;;;;;;5013588;28;19930;-57
2022/05/09 01:57:46;;;;;;;;;;;22.10;99.90;;;;;;5008190;28;19934;-59
2022/05/09 02:00:13;;;;;;;;;;;22.00;99.90;;;;;;5002713;28;19929;-59
2022/05/09 02:02:40;;;;;;;;;;;22.00;99.90;;;;;;5004082;28;19929;-59
2022/05/09 02:05:07;;;;;;;;;;;22.00;99.90;;;;;;5000434;28;19930;-59
2022/05/09 02:07:35;;;;;;;;;;;22.10;99.90;;;;;;5011120;28;19940;-58
2022/05/09 02:10:03;;;;;;;;;;;22.00;99.90;;;;;;5008614;28;19930;-58
2022/05/09 02:12:31;;;;;;;;;;;22.10;99.90;;;;;;5007294;28;19936;-55
2022/05/09 02:14:59;;;;;;;;;;;22.10;99.90;;;;;;5007772;28;20333;-58
2022/05/09 02:17:29;;;;;;;;;;;22.10;99.90;;;;;;5003067;28;19976;-58
2022/05/09 02:19:58;;;;;;;;;;;22.10;99.90;;;;;;5003549;28;20328;-58
2022/05/09 02:22:26;;;;;;;;;;;22.00;99.90;;;;;;5004741;28;19929;-57
2022/05/09 02:24:53;;;;;;;;;;;22.10;99.90;;;;;;5002501;28;19926;-59
2022/05/09 02:27:24;;;;;;;;;;;22.00;99.90;;;;;;5004700;28;20899;-57
2022/05/09 02:29:51;;;;;;;;;;;22.00;99.90;;;;;;4995966;28;19937;-57
2022/05/09 02:32:20;;;;;;;;;;;22.00;99.90;;;;;;5004603;28;19929;-58
2022/05/09 02:34:47;;;;;;;;;;;22.00;99.90;;;;;;5000776;28;19930;-58
2022/05/09 02:37:14;;;;;;;;;;;22.00;99.90;;;;;;5009157;28;19929;-58
2022/05/09 02:39:41;;;;;;;;;;;22.00;99.90;;;;;;5002762;28;20618;-59
2022/05/09 02:42:08;;;;;;;;;;;22.00;99.90;;;;;;5004830;28;19948;-60
2022/05/09 02:44:36;;;;;;;;;;;22.00;99.90;;;;;;5005028;28;20033;-57
2022/05/09 02:47:03;;;;;;;;;;;22.00;99.90;;;;;;5004236;28;19930;-57
2022/05/09 02:49:32;;;;;;;;;;;22.00;99.90;;;;;;5007725;28;20275;-56
2022/05/09 02:51:59;;;;;;;;;;;22.00;99.90;;;;;;5008634;28;19936;-58
2022/05/09 02:54:27;;;;;;;;;;;22.00;99.90;;;;;;5014193;28;19930;-59
2022/05/09 02:56:55;;;;;;;;;;;22.00;99.90;;;;;;5003974;28;19929;-59
2022/05/09 02:59:26;;;;;;;;;;;22.00;99.90;;;;;;5011509;28;19936;-58
2022/05/09 03:01:53;;;;;;;;;;;22.00;99.90;;;;;;5016435;28;19929;-58
2022/05/09 03:07:09;;;;;;;;;;;22.00;99.90;;;;;;4998656;28;19929;-59
2022/05/09 03:09:36;;;;;;;;;;;22.00;99.90;;;;;;5009084;28;19933;-59
2022/05/09 03:12:07;;;;;;;;;;;22.00;99.90;;;;;;5009459;28;19937;-61
2022/05/09 03:14:35;;;;;;;;;;;21.90;99.90;;;;;;5013961;28;19925;-61
2022/05/09 03:17:03;;;;;;;;;;;21.90;99.90;;;;;;5014497;28;19961;-62
2022/05/09 03:19:30;;;;;;;;;;;22.00;99.90;;;;;;5014931;28;19925;-61
2022/05/09 03:21:58;;;;;;;;;;;22.00;99.90;;;;;;5012075;28;19929;-60
2022/05/09 03:24:25;;;;;;;;;;;22.00;99.90;;;;;;5008044;28;19939;-60
2022/05/09 03:26:53;;;;;;;;;;;21.90;99.90;;;;;;5006469;28;20419;-61
2022/05/09 03:29:20;;;;;;;;;;;21.90;99.90;;;;;;5019934;28;19929;-62
2022/05/09 03:31:47;;;;;;;;;;;21.90;99.90;;;;;;5009459;28;19925;-60
2022/05/09 03:34:15;;;;;;;;;;;21.90;99.90;;;;;;5013949;28;20093;-62
2022/05/09 03:36:42;;;;;;;;;;;21.90;99.90;;;;;;5012272;28;20341;-60
2022/05/09 03:39:09;;;;;;;;;;;21.90;99.90;;;;;;5004392;28;19932;-62
2022/05/09 03:41:38;;;;;;;;;;;21.90;99.90;;;;;;5007039;28;19929;-59
2022/05/09 03:44:05;;;;;;;;;;;21.90;99.90;;;;;;5005060;28;19937;-61
2022/05/09 03:46:37;;;;;;;;;;;21.90;99.90;;;;;;5012859;28;19950;-62
2022/05/09 03:49:04;;;;;;;;;;;21.90;99.90;;;;;;5010051;28;19929;-62
2022/05/09 03:51:31;;;;;;;;;;;21.90;99.90;;;;;;5017696;28;20391;-61
2022/05/09 03:53:58;;;;;;;;;;;21.90;99.90;;;;;;5008374;28;20309;-62
2022/05/09 03:56:26;;;;;;;;;;;21.90;99.90;;;;;;5005394;28;20308;-63
2022/05/09 03:58:53;;;;;;;;;;;21.90;99.90;;;;;;5016989;28;19933;-63
2022/05/09 04:01:20;;;;;;;;;;;21.90;99.90;;;;;;5011570;28;19933;-64
2022/05/09 04:03:47;;;;;;;;;;;22.00;99.90;;;;;;5024111;28;19929;-62
2022/05/09 04:06:14;;;;;;;;;;;22.00;99.90;;;;;;5021681;28;20645;-63
2022/05/09 04:08:41;;;;;;;;;;;22.00;99.90;;;;;;5023120;28;20393;-62
2022/05/09 04:11:08;;;;;;;;;;;22.00;99.90;;;;;;5004464;28;19935;-64
2022/05/09 04:13:35;;;;;;;;;;;22.00;99.90;;;;;;5012869;28;19925;-62
2022/05/09 04:18:52;;;;;;;;;;;22.10;99.90;;;;;;5005943;28;20400;-60
2022/05/09 04:21:19;;;;;;;;;;;22.00;99.90;;;;;;5017407;28;19929;-62
2022/05/09 04:23:46;;;;;;;;;;;22.00;99.90;;;;;;5005467;28;20440;-60
2022/05/09 04:26:15;;;;;;;;;;;22.00;99.90;;;;;;5027924;28;19936;-60
2022/05/09 04:28:42;;;;;;;;;;;22.00;99.90;;;;;;5008179;28;20329;-60
2022/05/09 04:31:09;;;;;;;;;;;22.00;99.90;;;;;;5016128;28;19944;-63
2022/05/09 04:33:36;;;;;;;;;;;22.00;99.90;;;;;;5010387;28;19933;-63
2022/05/09 04:36:04;;;;;;;;;;;22.00;99.80;;;;;;5007669;28;19929;-62
2022/05/09 04:38:31;;;;;;;;;;;22.10;99.70;;;;;;5007764;28;19952;-64
2022/05/09 04:40:58;;;;;;;;;;;22.00;99.70;;;;;;5010202;28;20371;-62
2022/05/09 04:43:28;;;;;;;;;;;22.10;99.70;;;;;;5022289;28;20020;-64
2022/05/09 04:45:57;;;;;;;;;;;22.00;99.70;;;;;;5007950;28;19969;-63
2022/05/09 04:48:25;;;;;;;;;;;22.00;99.60;;;;;;5009375;28;19930;-63
2022/05/09 04:50:52;;;;;;;;;;;22.10;99.60;;;;;;5009012;28;19929;-63
2022/05/09 04:53:19;;;;;;;;;;;22.10;99.60;;;;;;5005878;28;19936;-62
2022/05/09 04:55:47;;;;;;;;;;;22.10;99.60;;;;;;5005739;28;20165;-63
2022/05/09 04:58:15;;;;;;;;;;;22.10;99.60;;;;;;5016232;28;19930;-63
2022/05/09 05:00:42;;;;;;;;;;;22.00;99.60;;;;;;5016746;28;20392;-63
2022/05/09 05:03:09;;;;;;;;;;;22.00;99.50;;;;;;5011203;28;20352;-62
2022/05/09 05:05:37;;;;;;;;;;;22.00;99.50;;;;;;5009832;28;19938;-62
2022/05/09 05:08:04;;;;;;;;;;;22.00;99.40;;;;;;5010629;28;19936;-63
2022/05/09 05:10:31;;;;;;;;;;;22.00;99.30;;;;;;5012624;28;20339;-62
2022/05/09 05:12:59;;;;;;;;;;;22.00;99.40;;;;;;5019919;28;19940;-62
2022/05/09 05:15:27;;;;;;;;;;;22.00;99.20;;;;;;5013569;28;20023;-61
2022/05/09 05:17:55;;;;;;;;;;;22.00;99.20;;;;;;5006493;28;19929;-62
2022/05/09 05:20:30;;;;;;;;;;;22.00;99.20;;;;;;5009970;28;19937;-60
2022/05/09 05:22:57;;;;;;;;;;;22.00;99.10;;;;;;5007398;28;19937;-61
2022/05/09 05:25:26;;;;;;;;;;;22.00;99.10;;;;;;5003341;28;19936;-62
2022/05/09 05:27:53;;;;;;;;;;;22.00;99.10;;;;;;5004259;28;20008;-62
2022/05/09 05:30:21;;;;;;;;;;;22.00;99.10;;;;;;5005542;28;19934;-58
2022/05/09 05:32:48;;;;;;;;;;;22.00;99.00;;;;;;5001796;28;20370;-60
2022/05/09 05:35:18;;;;;;;;;;;22.00;99.00;;;;;;5004619;28;19930;-62
2022/05/09 05:37:45;;;;;;;;;;;22.00;99.00;;;;;;5008671;28;19932;-61
2022/05/09 05:40:13;;;;;;;;;;;22.00;99.00;;;;;;5002023;28;19930;-59
2022/05/09 05:42:43;;;;;;;;;;;22.10;99.00;;;;;;4999662;28;19937;-59
2022/05/09 05:45:11;;;;;;;;;;;22.10;98.90;;;;;;5003058;28;19930;-61
2022/05/09 05:47:38;;;;;;;;;;;22.00;98.10;;;;;;5003720;28;19937;-62
2022/05/09 05:50:07;;;;;;;;;;;21.90;98.00;;;;;;5006869;28;20001;-61
2022/05/09 05:52:35;;;;;;;;;;;21.80;97.20;;;;;;5031053;28;19952;-62
2022/05/09 05:55:02;;;;;;;;;;;21.80;96.60;;;;;;5006606;28;19925;-64
2022/05/09 05:57:32;;;;;;;;;;;21.70;96.20;;;;;;5000144;28;19937;-60
2022/05/09 06:00:02;;;;;;;;;;;21.70;95.50;;;;;;5044983;28;19929;-60
2022/05/09 06:02:30;;;;;;;;;;;21.70;95.70;;;;;;5014859;28;19930;-60
2022/05/09 06:04:57;;;;;;;;;;;21.70;95.30;;;;;;5006914;28;19929;-59
2022/05/09 06:07:25;;;;;;;;;;;21.90;95.10;;;;;;5007651;28;19933;-58
2022/05/09 06:09:53;;;;;;;;;;;22.00;94.60;;;;;;5011492;28;19929;-59
2022/05/09 06:12:21;;;;;;;;;;;21.90;94.20;;;;;;5003706;28;19941;-61
2022/05/09 06:15:24;;;;;;;;;;;21.90;93.40;;;;;;5005324;28;19930;-60
2022/05/09 06:17:37;;;;;;;;;;;21.90;93.50;;;;;;4998437;28;19929;-61
2022/05/09 06:20:05;;;;;;;;;;;21.90;93.40;;;;;;5001185;28;19948;-60
2022/05/09 06:22:36;;;;;;;;;;;21.90;93.50;;;;;;5001945;28;20416;-62
2022/05/09 06:25:03;;;;;;;;;;;22.00;93.40;;;;;;5002553;28;19984;-60
2022/05/09 06:27:32;;;;;;;;;;;22.00;93.40;;;;;;5003915;28;19929;-57
2022/05/09 06:30:00;;;;;;;;;;;22.00;93.10;;;;;;5006760;28;20309;-59
2022/05/09 06:32:27;;;;;;;;;;;21.90;93.10;;;;;;5000231;28;19941;-59
2022/05/09 06:34:54;;;;;;;;;;;21.90;93.00;;;;;;4999416;28;19925;-59
2022/05/09 06:37:21;;;;;;;;;;;21.90;93.20;;;;;;4997881;28;20262;-58
2022/05/09 06:39:51;;;;;;;;;;;21.90;93.60;;;;;;4997752;28;19974;-61
2022/05/09 06:42:18;;;;;;;;;;;21.90;93.80;;;;;;5011200;28;19933;-57
2022/05/09 06:44:46;;;;;;;;;;;21.90;93.40;;;;;;5001671;28;19940;-58
2022/05/09 06:47:13;;;;;;;;;;;21.90;93.30;;;;;;5012894;28;19929;-60
2022/05/09 06:49:41;;;;;;;;;;;21.90;93.20;;;;;;5004570;28;19933;-59
2022/05/09 06:52:08;;;;;;;;;;;21.90;93.20;;;;;;5010271;28;19936;-58
2022/05/09 06:54:35;;;;;;;;;;;21.80;93.10;;;;;;5011718;28;19929;-58
2022/05/09 06:57:02;;;;;;;;;;;21.80;93.00;;;;;;5006868;28;19929;-61
2022/05/09 06:59:30;;;;;;;;;;;21.80;93.00;;;;;;5004354;28;20393;-61
2022/05/09 07:01:57;;;;;;;;;;;21.80;92.90;;;;;;5004550;28;20397;-61
2022/05/09 07:04:25;;;;;;;;;;;21.80;92.90;;;;;;5000946;28;20416;-60
2022/05/09 07:06:52;;;;;;;;;;;21.80;92.90;;;;;;5009889;28;19936;-58
2022/05/09 07:09:19;;;;;;;;;;;21.80;92.90;;;;;;5010900;28;20384;-61
2022/05/09 07:11:46;;;;;;;;;;;21.80;93.80;;;;;;4999693;28;20017;-60
2022/05/09 07:14:13;;;;;;;;;;;21.90;94.20;;;;;;5001262;28;20381;-61
2022/05/09 07:16:40;;;;;;;;;;;21.90;93.90;;;;;;5006657;28;20020;-62
2022/05/09 07:19:08;;;;;;;;;;;21.90;94.70;;;;;;5000421;28;20427;-61
2022/05/09 07:21:35;;;;;;;;;;;21.90;95.00;;;;;;5003945;28;19933;-59
2022/05/09 07:24:02;;;;;;;;;;;21.90;95.40;;;;;;5005106;28;19934;-59
2022/05/09 07:26:29;;;;;;;;;;;21.90;95.40;;;;;;5003352;28;19929;-60
2022/05/09 07:28:56;;;;;;;;;;;21.90;95.00;;;;;;4999500;28;19933;-62
2022/05/09 07:31:23;;;;;;;;;;;21.90;94.70;;;;;;4998226;28;19929;-59
2022/05/09 07:33:52;;;;;;;;;;;21.90;94.90;;;;;;5005745;28;20436;-59
2022/05/09 07:36:19;;;;;;;;;;;21.90;94.80;;;;;;4994000;28;19930;-60
2022/05/09 07:38:46;;;;;;;;;;;21.90;94.70;;;;;;5004332;28;19940;-60
2022/05/09 07:41:13;;;;;;;;;;;21.90;94.60;;;;;;5006366;28;21108;-64
2022/05/09 07:43:40;;;;;;;;;;;21.90;94.30;;;;;;5015429;28;19937;-61
2022/05/09 07:46:11;;;;;;;;;;;21.90;94.50;;;;;;5015002;28;19929;-61
2022/05/09 07:48:58;;;;;;;;;;;22.00;94.70;;;;;;5016259;28;19940;-62
2022/05/09 07:51:25;;;;;;;;;;;22.00;95.10;;;;;;5014393;28;19930;-61
2022/05/09 07:53:53;;;;;;;;;;;22.00;95.20;;;;;;5011202;28;20410;-59
2022/05/09 07:56:20;;;;;;;;;;;22.00;95.00;;;;;;5014944;28;19934;-59
2022/05/09 07:58:47;;;;;;;;;;;22.00;95.20;;;;;;5026092;28;19929;-61
2022/05/09 08:01:14;;;;;;;;;;;22.00;95.30;;;;;;5008584;28;20393;-63
2022/05/09 08:03:42;;;;;;;;;;;22.00;95.20;;;;;;5008627;28;19929;-61
2022/05/09 08:06:10;;;;;;;;;;;22.00;95.10;;;;;;5007763;28;20385;-59
2022/05/09 08:08:39;;;;;;;;;;;22.10;95.00;;;;;;5004549;28;19956;-61
2022/05/09 08:11:12;;;;;;;;;;;22.10;95.00;;;;;;5011863;28;20260;-58
2022/05/09 08:13:40;;;;;;;;;;;22.20;94.80;;;;;;5005128;28;20271;-59
2022/05/09 08:16:08;;;;;;;;;;;22.20;94.70;;;;;;5006432;28;20648;-61
2022/05/09 08:18:35;;;;;;;;;;;22.20;94.80;;;;;;5000933;28;19936;-58
2022/05/09 08:21:03;;;;;;;;;;;22.20;94.90;;;;;;5003722;28;19952;-63
2022/05/09 08:23:31;;;;;;;;;;;22.20;94.90;;;;;;5006047;28;20381;-60
2022/05/09 08:26:02;;;;;;;;;;;22.20;94.90;;;;;;5010595;28;19933;-60
2022/05/09 08:28:31;;;;;;;;;;;22.20;94.90;;;;;;5001890;28;19940;-59
2022/05/09 08:30:58;;;;;;;;;;;22.20;94.90;;;;;;5005674;28;19930;-62
2022/05/09 08:33:26;;;;;;;;;;;22.30;95.00;;;;;;5007755;28;19941;-61
2022/05/09 08:35:54;;;;;;;;;;;22.30;95.10;;;;;;5005336;28;19936;-60
2022/05/09 08:38:21;;;;;;;;;;;22.30;95.10;;;;;;4996017;28;19929;-61
2022/05/09 08:41:07;;;;;;;;;;;22.30;95.20;;;;;;5009837;28;20415;-60
2022/05/09 08:44:09;;;;;;;;;;;22.30;95.70;;;;;;5013028;28;19934;-61
2022/05/09 08:46:44;;;;;;;;;;;22.40;96.60;;;;;;5002889;28;19945;-60
2022/05/09 08:49:20;;;;;;;;;;;22.40;97.00;;;;;;5001341;28;19937;-61
2022/05/09 08:52:06;;;;;;;;;;;22.40;97.00;;;;;;5005610;28;19929;-58
2022/05/09 08:54:34;;;;;;;;;;;22.40;97.10;;;;;;5004551;28;19933;-60
2022/05/09 08:57:06;;;;;;;;;;;22.40;97.40;;;;;;5002591;28;19953;-59
2022/05/09 08:59:36;;;;;;;;;;;22.40;97.70;;;;;;4999683;28;19929;-60
2022/05/09 09:02:09;;;;;;;;;;;22.40;97.60;;;;;;5002825;28;20325;-55
2022/05/09 09:04:38;;;;;;;;;;;22.40;97.70;;;;;;5007876;28;19930;-56
2022/05/09 09:07:22;;;;;;;;;;;22.30;97.40;;;;;;5005363;28;19930;-56
2022/05/09 09:09:52;;;;;;;;;;;22.30;97.20;;;;;;4999746;28;19933;-55
2022/05/09 09:12:34;;;;;;;;;;;22.30;97.00;;;;;;4998853;28;20263;-54
2022/05/09 09:15:05;;;;;;;;;;;22.30;97.10;;;;;;5013229;28;19933;-58
2022/05/09 09:17:35;;;;;;;;;;;22.20;96.90;;;;;;5002125;28;19925;-55
2022/05/09 09:20:18;;;;;;;;;;;22.30;96.70;;;;;;5003317;28;19934;-58
2022/05/09 09:22:51;;;;;;;;;;;22.30;96.50;;;;;;4994913;28;20404;-57
2022/05/09 09:25:28;;;;;;;;;;;22.20;96.40;;;;;;5001295;28;19929;-58
2022/05/09 09:28:14;;;;;;;;;;;22.30;96.30;;;;;;5016943;28;19929;-58
2022/05/09 09:30:42;;;;;;;;;;;22.30;96.20;;;;;;5001423;28;19936;-57
2022/05/09 09:33:12;;;;;;;;;;;22.30;96.10;;;;;;5008762;28;20348;-57
2022/05/09 09:35:58;;;;;;;;;;;22.30;96.10;;;;;;5002105;28;19974;-57
2022/05/09 09:38:31;;;;;;;;;;;22.30;96.00;;;;;;5006252;28;19936;-59
2022/05/09 09:41:17;;;;;;;;;;;22.30;96.20;;;;;;5008422;28;19929;-58
2022/05/09 09:43:45;;;;;;;;;;;22.30;96.30;;;;;;5012287;28;20539;-57
2022/05/09 09:46:12;;;;;;;;;;;22.30;95.30;;;;;;5005043;28;19930;-57
2022/05/09 09:48:40;;;;;;;;;;;22.20;94.00;;;;;;5010776;28;19934;-57
2022/05/09 09:51:10;;;;;;;;;;;22.20;94.10;;;;;;5013952;28;19929;-58
2022/05/09 09:53:39;;;;;;;;;;;22.20;93.50;;;;;;5022500;28;20397;-55
2022/05/09 09:56:09;;;;;;;;;;;22.10;93.20;;;;;;5012655;28;19936;-58
2022/05/09 09:58:40;;;;;;;;;;;22.10;93.30;;;;;;5009782;28;20385;-57
2022/05/09 10:01:10;;;;;;;;;;;22.10;93.20;;;;;;5004725;28;19930;-56
2022/05/09 10:03:39;;;;;;;;;;;22.20;93.20;;;;;;5014144;28;20367;-57
2022/05/09 10:06:14;;;;;;;;;;;22.30;92.80;;;;;;5011285;28;19929;-55
2022/05/09 10:08:42;;;;;;;;;;;22.20;92.10;;;;;;5002535;28;20413;-58
2022/05/09 10:11:12;;;;;;;;;;;22.20;91.30;;;;;;5017107;28;19958;-56
2022/05/09 10:13:59;;;;;;;;;;;22.20;92.10;;;;;;5009793;28;20009;-58
2022/05/09 10:16:31;;;;;;;;;;;22.10;91.90;;;;;;5015952;28;19930;-58
2022/05/09 10:19:00;;;;;;;;;;;22.20;91.80;;;;;;5016225;28;20476;-60
2022/05/09 10:24:57;;;;;;;;;;;22.20;91.90;;;;;;5008924;28;19929;-59
2022/05/09 10:27:27;;;;;;;;;;;22.30;91.80;;;;;;5007248;28;19929;-59
2022/05/09 10:29:56;;;;;;;;;;;22.30;92.00;;;;;;5004507;28;19936;-60
2022/05/09 10:32:27;;;;;;;;;;;22.30;92.20;;;;;;5018510;28;19925;-57
2022/05/09 10:34:58;;;;;;;;;;;22.40;92.30;;;;;;5002254;28;19929;-59
2022/05/09 10:37:27;;;;;;;;;;;22.40;92.50;;;;;;5021610;28;19972;-58
2022/05/09 10:39:54;;;;;;;;;;;22.50;92.40;;;;;;5014049;28;19929;-60
2022/05/09 10:42:27;;;;;;;;;;;22.40;92.60;;;;;;5007654;28;19933;-58
2022/05/09 10:45:02;;;;;;;;;;;22.50;92.80;;;;;;5004225;28;19926;-60
2022/05/09 10:47:32;;;;;;;;;;;22.50;93.00;;;;;;4996777;28;19930;-60
2022/05/09 10:50:18;;;;;;;;;;;22.40;93.00;;;;;;5012816;28;19933;-60
2022/05/09 10:52:45;;;;;;;;;;;22.40;93.10;;;;;;5004697;28;19933;-59
2022/05/09 10:55:12;;;;;;;;;;;22.50;93.20;;;;;;5009922;28;19976;-59
2022/05/09 10:57:46;;;;;;;;;;;22.50;93.30;;;;;;5018219;28;19936;-58
2022/05/09 11:00:19;;;;;;;;;;;22.50;93.50;;;;;;5005443;28;19929;-54
2022/05/09 11:02:54;;;;;;;;;;;22.50;93.60;;;;;;5013763;28;19929;-61
2022/05/09 11:05:23;;;;;;;;;;;22.50;93.70;;;;;;5002619;28;20363;-59
2022/05/09 11:07:53;;;;;;;;;;;22.50;93.70;;;;;;5008215;28;19934;-59
2022/05/09 11:10:26;;;;;;;;;;;22.50;93.80;;;;;;5007439;28;19952;-58
2022/05/09 11:12:53;;;;;;;;;;;22.50;93.70;;;;;;5011263;28;20397;-57
2022/05/09 11:15:46;;;;;;;;;;;22.50;93.60;;;;;;5012750;28;19929;-53
2022/05/09 11:18:32;;;;;;;;;;;22.50;93.60;;;;;;5020488;28;20294;-58
2022/05/09 11:21:19;;;;;;;;;;;22.50;93.70;;;;;;5012571;28;20413;-54
2022/05/09 11:24:04;;;;;;;;;;;22.50;93.80;;;;;;5009161;28;20427;-56
2022/05/09 11:26:31;;;;;;;;;;;22.50;94.40;;;;;;5011783;28;20308;-60
2022/05/09 11:29:14;;;;;;;;;;;22.60;94.90;;;;;;5013400;28;19926;-59
2022/05/09 11:31:48;;;;;;;;;;;22.60;94.80;;;;;;5009751;28;20405;-61
2022/05/09 11:34:17;;;;;;;;;;;22.60;95.00;;;;;;5010815;28;19936;-60
2022/05/09 11:36:50;;;;;;;;;;;22.60;95.10;;;;;;5015296;28;19937;-59
2022/05/09 11:39:31;;;;;;;;;;;22.60;95.40;;;;;;5014872;28;19930;-59
2022/05/09 11:43:27;;;;;;;;;;;22.60;95.40;;;;;;5018955;28;19937;-62
2022/05/09 11:45:02;;;;;;;;;;;22.60;95.50;;;;;;5015964;28;19933;-59
2022/05/09 11:47:41;;;;;;;;;;;22.60;95.50;;;;;;5008058;28;20317;-60
2022/05/09 11:50:20;;;;;;;;;;;22.60;95.50;;;;;;5013111;28;19930;-60
2022/05/09 11:52:47;;;;;;;;;;;22.60;95.60;;;;;;5013393;28;19929;-59
2022/05/09 11:55:18;;;;;;;;;;;22.60;95.50;;;;;;5016512;28;19944;-57
2022/05/09 11:57:56;;;;;;;;;;;22.60;95.40;;;;;;5008893;28;19933;-53
2022/05/09 12:00:27;;;;;;;;;;;22.60;95.20;;;;;;5010250;28;19937;-58
2022/05/09 12:03:05;;;;;;;;;;;22.60;95.40;;;;;;5015346;28;19945;-58
2022/05/09 12:05:33;;;;;;;;;;;22.50;95.40;;;;;;5010150;28;19933;-58
2022/05/09 12:08:15;;;;;;;;;;;22.60;95.50;;;;;;5016032;28;19925;-56
2022/05/09 12:10:50;;;;;;;;;;;22.60;95.50;;;;;;5009927;28;19929;-55
2022/05/09 12:13:21;;;;;;;;;;;22.60;95.60;;;;;;5012836;28;19940;-58
2022/05/09 12:15:51;;;;;;;;;;;22.60;95.60;;;;;;5022545;28;19930;-58
2022/05/09 12:18:20;;;;;;;;;;;22.60;95.60;;;;;;5022507;28;19968;-60
2022/05/09 12:20:48;;;;;;;;;;;22.60;95.50;;;;;;5016893;28;19932;-56
2022/05/09 12:23:41;;;;;;;;;;;22.60;95.60;;;;;;5017307;28;20427;-57
2022/05/09 12:26:09;;;;;;;;;;;22.70;95.30;;;;;;5002408;28;19937;-57
2022/05/09 12:28:40;;;;;;;;;;;22.70;95.30;;;;;;5016351;28;20349;-56
2022/05/09 12:31:20;;;;;;;;;;;22.70;95.20;;;;;;5009433;28;19937;-57
2022/05/09 12:33:47;;;;;;;;;;;22.70;95.20;;;;;;5016611;28;19941;-56
2022/05/09 12:36:19;;;;;;;;;;;22.70;95.10;;;;;;5018508;28;19925;-59
2022/05/09 12:38:49;;;;;;;;;;;22.70;95.00;;;;;;5005268;28;19929;-57
2022/05/09 12:41:17;;;;;;;;;;;22.70;94.90;;;;;;5009342;28;19944;-58
2022/05/09 12:43:55;;;;;;;;;;;22.70;94.80;;;;;;5013843;28;19929;-59
2022/05/09 12:46:24;;;;;;;;;;;22.70;94.70;;;;;;5012795;28;19996;-57
2022/05/09 12:48:52;;;;;;;;;;;22.70;94.50;;;;;;5002023;28;20217;-58
2022/05/09 12:51:20;;;;;;;;;;;22.70;94.60;;;;;;5015392;28;19925;-58
2022/05/09 12:53:48;;;;;;;;;;;22.80;94.60;;;;;;5011904;28;19929;-58
2022/05/09 12:56:18;;;;;;;;;;;22.80;94.50;;;;;;5018768;28;19936;-59
2022/05/09 12:58:47;;;;;;;;;;;22.80;94.40;;;;;;5006638;28;19960;-61
2022/05/09 13:01:18;;;;;;;;;;;22.90;94.40;;;;;;5007719;28;20316;-56
2022/05/09 13:04:06;;;;;;;;;;;22.90;94.30;;;;;;5018156;28;19930;-57
2022/05/09 13:06:37;;;;;;;;;;;22.90;94.30;;;;;;5015293;28;19935;-58
2022/05/09 13:09:31;;;;;;;;;;;22.90;94.20;;;;;;5011573;28;19932;-58
2022/05/09 13:12:03;;;;;;;;;;;22.90;94.30;;;;;;4998912;28;19926;-57
2022/05/09 13:14:36;;;;;;;;;;;22.90;94.10;;;;;;5004723;28;19930;-58
2022/05/09 13:17:04;;;;;;;;;;;22.90;94.10;;;;;;5013613;28;19933;-57
2022/05/09 13:19:32;;;;;;;;;;;22.90;94.10;;;;;;5012451;28;19933;-58
2022/05/09 13:22:00;;;;;;;;;;;22.90;94.20;;;;;;5013494;28;20271;-58
2022/05/09 13:24:29;;;;;;;;;;;22.80;94.30;;;;;;5012554;28;19936;-59
2022/05/09 13:26:57;;;;;;;;;;;22.90;94.30;;;;;;5011195;28;19936;-58
2022/05/09 13:29:27;;;;;;;;;;;22.90;94.20;;;;;;5010910;28;19933;-58
2022/05/09 13:31:56;;;;;;;;;;;23.00;94.10;;;;;;5004901;28;20369;-59
2022/05/09 13:34:32;;;;;;;;;;;23.00;94.00;;;;;;5014273;28;19928;-60
2022/05/09 13:37:01;;;;;;;;;;;23.00;94.10;;;;;;5005719;28;19930;-57
2022/05/09 13:39:37;;;;;;;;;;;22.90;94.10;;;;;;5009559;28;19933;-54
2022/05/09 13:42:23;;;;;;;;;;;23.00;94.10;;;;;;5008729;28;19945;-55
2022/05/09 13:44:51;;;;;;;;;;;23.00;94.00;;;;;;5009977;28;19936;-60
2022/05/09 13:47:21;;;;;;;;;;;23.10;93.80;;;;;;5017671;28;19940;-58
2022/05/09 13:49:49;;;;;;;;;;;23.10;93.70;;;;;;5004091;28;19937;-61
2022/05/09 13:52:22;;;;;;;;;;;23.20;93.50;;;;;;5002643;28;19929;-59
2022/05/09 13:54:50;;;;;;;;;;;23.20;93.50;;;;;;5000766;28;19933;-57
2022/05/09 13:57:22;;;;;;;;;;;23.10;93.50;;;;;;5024923;28;19936;-58
2022/05/09 13:59:53;;;;;;;;;;;23.10;93.60;;;;;;5002557;28;19930;-55
2022/05/09 14:02:20;;;;;;;;;;;23.10;93.80;;;;;;5005460;28;19952;-56
2022/05/09 14:04:58;;;;;;;;;;;23.10;94.00;;;;;;5015433;28;19932;-58
2022/05/09 14:07:37;;;;;;;;;;;23.10;93.50;;;;;;5006762;28;19929;-59
2022/05/09 14:10:07;;;;;;;;;;;23.10;93.50;;;;;;5010137;28;19929;-58
2022/05/09 14:12:36;;;;;;;;;;;23.10;93.40;;;;;;5011446;28;19944;-57
2022/05/09 14:15:05;;;;;;;;;;;23.10;93.40;;;;;;5011564;28;19925;-55
2022/05/09 14:17:34;;;;;;;;;;;23.10;93.50;;;;;;5015284;28;19933;-57
2022/05/09 14:20:03;;;;;;;;;;;23.00;93.70;;;;;;5009201;28;19929;-58
2022/05/09 14:22:31;;;;;;;;;;;23.10;93.60;;;;;;5010215;28;19936;-60
2022/05/09 14:30:39;;;;;;;;;;;23.10;93.60;;;;;;5005005;28;19936;-59
2022/05/09 14:33:27;;;;;;;;;;;23.10;93.60;;;;;;5010573;28;19929;-56
2022/05/09 14:35:56;;;;;;;;;;;23.00;93.70;;;;;;5009202;28;19934;-56
2022/05/09 14:38:23;;;;;;;;;;;23.00;93.70;;;;;;5011424;28;19940;-56
2022/05/09 14:40:50;;;;;;;;;;;23.00;93.90;;;;;;5010503;28;19929;-57
2022/05/09 14:43:28;;;;;;;;;;;23.00;93.90;;;;;;5003449;28;19944;-58
2022/05/09 14:46:04;;;;;;;;;;;22.90;93.90;;;;;;5009204;28;20245;-54
2022/05/09 14:48:34;;;;;;;;;;;23.00;94.60;;;;;;5013270;28;19929;-57
2022/05/09 14:51:02;;;;;;;;;;;23.10;94.70;;;;;;5001372;28;19930;-55